createdAt,value
2022-12-03T00:01:12.497Z,7.9
2022-12-03T00:11:20.359Z,7.8
2022-12-03T00:21:28.367Z,7.6
2022-12-03T00:31:36.307Z,7.3
2022-12-03T00:41:44.147Z,6.8
2022-12-03T00:51:51.968Z,6.8
2022-12-03T01:01:59.822Z,6.7
2022-12-03T01:12:08.048Z,6.5
2022-12-03T01:22:15.933Z,6.3
2022-12-03T01:32:23.672Z,6.4
2022-12-03T01:42:31.576Z,6.3
2022-12-03T01:52:39.345Z,6.2
2022-12-03T02:02:47.138Z,6
2022-12-03T02:12:54.928Z,5.9
2022-12-03T02:23:02.950Z,5.9
2022-12-03T02:33:10.873Z,5.8
2022-12-03T02:43:18.782Z,5.8
2022-12-03T02:53:26.951Z,5.9
2022-12-03T03:03:34.796Z,6
2022-12-03T03:13:42.678Z,6
2022-12-03T03:23:50.593Z,5.8
2022-12-03T03:33:58.680Z,6
2022-12-03T03:44:06.534Z,6.1
2022-12-03T03:54:14.327Z,6.1
2022-12-03T04:04:22.299Z,6.2
2022-12-03T04:14:30.069Z,6.2
2022-12-03T04:24:37.894Z,6.1
2022-12-03T04:34:45.734Z,6.1
2022-12-03T04:44:53.334Z,6.1
2022-12-03T04:55:00.938Z,6.2
2022-12-03T05:05:08.790Z,6.3
2022-12-03T05:15:16.642Z,6.3
2022-12-03T05:25:24.520Z,6.3
2022-12-03T05:35:32.566Z,6.2
2022-12-03T05:45:40.457Z,6.2
2022-12-03T05:55:48.279Z,6.1
2022-12-03T06:05:56.166Z,6.2
2022-12-03T06:16:04.088Z,6.5
2022-12-03T06:26:11.954Z,6.3
2022-12-03T06:36:22.935Z,6.1
2022-12-03T06:46:27.235Z,6.1
2022-12-03T06:56:37.979Z,5.9
2022-12-03T07:06:42.463Z,5.9
2022-12-03T07:16:50.580Z,5.8
2022-12-03T07:26:58.449Z,5.6
2022-12-03T07:37:06.258Z,5.5
2022-12-03T07:47:13.223Z,5.8
2022-12-03T07:57:21.177Z,6.2
2022-12-03T08:07:29.087Z,6.4
2022-12-03T08:17:36.969Z,6.6
2022-12-03T08:27:44.895Z,6.7
2022-12-03T08:37:52.773Z,7.2
2022-12-03T08:48:01.738Z,7.8
2022-12-03T08:58:09.654Z,8
2022-12-03T09:08:17.643Z,8.2
2022-12-03T09:18:25.451Z,8.7
2022-12-03T09:28:33.306Z,9
2022-12-03T09:38:44.480Z,9.4
2022-12-03T09:58:55.287Z,9.7
2022-12-03T10:09:03.186Z,9.9
2022-12-03T10:19:11.064Z,10.4
2022-12-03T10:29:18.970Z,10.8
2022-12-03T10:39:26.690Z,11.3
2022-12-03T10:49:34.640Z,11.6
2022-12-03T10:59:42.651Z,11.9
2022-12-03T11:09:45.466Z,12.3
2022-12-03T11:19:45.711Z,12.9
2022-12-03T11:29:53.759Z,13.5
2022-12-03T11:40:02.308Z,13.9
2022-12-03T11:50:12.633Z,14.4
2022-12-03T12:00:20.859Z,14.6
2022-12-03T12:10:28.957Z,15.1
2022-12-03T12:20:37.090Z,15.4
2022-12-03T12:30:46.301Z,15.2
2022-12-03T12:40:54.267Z,15.5
2022-12-03T12:51:03.123Z,15.6
2022-12-03T13:01:12.366Z,15.5
2022-12-03T13:11:22.679Z,15
2022-12-03T13:21:30.712Z,15.4
2022-12-03T13:31:43.636Z,15.7
2022-12-03T13:41:51.192Z,15.7
2022-12-03T13:51:51.492Z,15.7
2022-12-03T14:01:51.230Z,15.7
2022-12-03T14:11:59.375Z,15.3
2022-12-03T14:22:07.285Z,15
2022-12-03T14:32:15.769Z,14.5
2022-12-03T14:42:16.930Z,14.7
2022-12-03T14:52:29.608Z,14.8
2022-12-03T15:12:34.980Z,14.7
2022-12-03T15:32:42.340Z,14.1
2022-12-03T15:42:39.836Z,14.3
2022-12-03T15:52:49.139Z,14.4
2022-12-03T16:02:59.596Z,14
2022-12-03T16:12:59.158Z,13.8
2022-12-03T16:23:08.422Z,13.8
2022-12-03T16:33:17.211Z,14
2022-12-03T16:43:24.491Z,13.9
2022-12-03T16:53:32.962Z,13.8
2022-12-03T17:03:41.285Z,13.8
2022-12-03T17:13:49.625Z,13.6
2022-12-03T17:24:01.112Z,13.6
2022-12-03T17:34:00.336Z,13.9
2022-12-03T17:44:10.315Z,13.8
2022-12-03T17:54:06.687Z,13.3
2022-12-03T18:04:08.036Z,13.2
2022-12-03T18:14:19.483Z,13
2022-12-03T18:34:20.389Z,12.7
2022-12-03T18:44:29.675Z,12.4
2022-12-03T18:54:38.878Z,12.2
2022-12-03T19:04:39.386Z,12
2022-12-03T19:14:47.621Z,11.8
2022-12-03T19:24:49.260Z,11.5
2022-12-03T19:34:53.871Z,11.4
2022-12-03T19:45:03.123Z,11.2
2022-12-03T19:55:11.511Z,11
2022-12-03T20:05:20.392Z,11.1
2022-12-03T20:15:27.141Z,11.1
2022-12-03T20:25:35.608Z,11.4
2022-12-03T20:35:44.884Z,11.6
2022-12-03T20:45:55.905Z,11.8
2022-12-03T20:56:00.803Z,11.7
2022-12-03T21:06:08.959Z,11.7
2022-12-03T21:16:17.142Z,11.4
2022-12-03T21:26:23.880Z,11.2
2022-12-03T21:36:32.419Z,11.3
2022-12-03T21:47:08.588Z,11.3
2022-12-03T21:56:47.302Z,11.2
2022-12-03T22:06:57.016Z,11.1
2022-12-03T22:17:05.855Z,11.1
2022-12-03T22:27:06.565Z,11.6
2022-12-03T22:37:15.077Z,11.6
2022-12-03T22:47:24.682Z,11.5
2022-12-03T22:57:33.621Z,10.8
2022-12-03T23:07:41.932Z,10.4
2022-12-03T23:17:51.707Z,10.1
2022-12-03T23:27:58.896Z,9.9
2022-12-03T23:38:07.142Z,9.8
2022-12-03T23:48:15.421Z,9.9
2022-12-03T23:58:23.816Z,9.8
